sensor_id;sensor_type;location;lat;lon;timestamp;pressure;altitude;pressure_sealevel;temperature;humidity
18988;BME280;5494;51.796;10.952;2022-07-10T00:00:27;99647.84;;;13.96;71.47
18988;BME280;5494;51.796;10.952;2022-07-10T00:02:57;99643.59;;;13.94;72.01
18988;BME280;5494;51.796;10.952;2022-07-10T00:05:28;99651.50;;;13.92;72.74
18988;BME280;5494;51.796;10.952;2022-07-10T00:07:57;99642.75;;;13.93;73.10
18988;BME280;5494;51.796;10.952;2022-07-10T00:10:27;99642.09;;;13.90;73.44
18988;BME280;5494;51.796;10.952;2022-07-10T00:12:56;99632.69;;;13.86;73.75
18988;BME280;5494;51.796;10.952;2022-07-10T00:15:25;99640.72;;;13.83;74.12
18988;BME280;5494;51.796;10.952;2022-07-10T00:17:53;99645.00;;;13.84;74.19
18988;BME280;5494;51.796;10.952;2022-07-10T00:20:22;99643.41;;;13.81;74.67
18988;BME280;5494;51.796;10.952;2022-07-10T00:22:52;99649.56;;;13.80;75.04
18988;BME280;5494;51.796;10.952;2022-07-10T00:25:28;99641.53;;;13.67;75.44
18988;BME280;5494;51.796;10.952;2022-07-10T00:27:57;99640.63;;;13.68;75.36
18988;BME280;5494;51.796;10.952;2022-07-10T00:30:27;99635.59;;;13.64;75.67
18988;BME280;5494;51.796;10.952;2022-07-10T00:32:55;99644.06;;;13.69;75.57
18988;BME280;5494;51.796;10.952;2022-07-10T00:35:24;99653.16;;;13.62;75.91
18988;BME280;5494;51.796;10.952;2022-07-10T00:37:53;99642.53;;;13.65;76.04
18988;BME280;5494;51.796;10.952;2022-07-10T00:40:22;99640.50;;;13.70;76.30
18988;BME280;5494;51.796;10.952;2022-07-10T00:42:50;99649.81;;;13.75;75.69
18988;BME280;5494;51.796;10.952;2022-07-10T00:45:19;99649.13;;;13.72;75.48
18988;BME280;5494;51.796;10.952;2022-07-10T00:47:47;99646.94;;;13.80;75.33
18988;BME280;5494;51.796;10.952;2022-07-10T00:50:16;99640.88;;;13.79;75.09
18988;BME280;5494;51.796;10.952;2022-07-10T00:52:46;99634.44;;;13.69;75.68
18988;BME280;5494;51.796;10.952;2022-07-10T00:55:16;99630.91;;;13.70;75.62
18988;BME280;5494;51.796;10.952;2022-07-10T00:57:45;99619.09;;;13.63;75.45
18988;BME280;5494;51.796;10.952;2022-07-10T01:00:14;99628.69;;;13.63;75.35
18988;BME280;5494;51.796;10.952;2022-07-10T01:02:44;99618.34;;;13.61;75.73
18988;BME280;5494;51.796;10.952;2022-07-10T01:05:13;99627.69;;;13.65;75.35
18988;BME280;5494;51.796;10.952;2022-07-10T01:07:41;99619.78;;;13.67;75.58
18988;BME280;5494;51.796;10.952;2022-07-10T01:10:10;99621.28;;;13.71;75.50
18988;BME280;5494;51.796;10.952;2022-07-10T01:12:40;99618.69;;;13.71;74.67
18988;BME280;5494;51.796;10.952;2022-07-10T01:15:09;99612.53;;;13.72;74.79
18988;BME280;5494;51.796;10.952;2022-07-10T01:17:38;99616.59;;;13.77;74.24
18988;BME280;5494;51.796;10.952;2022-07-10T01:20:08;99607.75;;;13.80;74.34
18988;BME280;5494;51.796;10.952;2022-07-10T01:22:39;99597.28;;;13.80;74.23
18988;BME280;5494;51.796;10.952;2022-07-10T01:25:08;99596.72;;;13.75;74.49
18988;BME280;5494;51.796;10.952;2022-07-10T01:27:38;99593.25;;;13.74;74.43
18988;BME280;5494;51.796;10.952;2022-07-10T01:30:09;99596.53;;;13.78;74.29
18988;BME280;5494;51.796;10.952;2022-07-10T01:32:39;99605.97;;;13.80;74.04
18988;BME280;5494;51.796;10.952;2022-07-10T01:35:08;99607.91;;;13.77;74.61
18988;BME280;5494;51.796;10.952;2022-07-10T01:37:39;99607.69;;;13.82;74.66
18988;BME280;5494;51.796;10.952;2022-07-10T01:40:08;99599.22;;;13.76;75.30
18988;BME280;5494;51.796;10.952;2022-07-10T01:42:37;99607.56;;;13.83;75.20
18988;BME280;5494;51.796;10.952;2022-07-10T01:45:08;99601.25;;;13.87;74.95
18988;BME280;5494;51.796;10.952;2022-07-10T01:47:37;99595.34;;;13.84;74.82
18988;BME280;5494;51.796;10.952;2022-07-10T01:50:07;99588.59;;;13.79;74.95
18988;BME280;5494;51.796;10.952;2022-07-10T01:52:36;99582.09;;;13.71;75.10
18988;BME280;5494;51.796;10.952;2022-07-10T01:55:08;99586.47;;;13.70;75.52
18988;BME280;5494;51.796;10.952;2022-07-10T01:57:37;99591.47;;;13.75;75.41
18988;BME280;5494;51.796;10.952;2022-07-10T02:00:07;99589.09;;;13.70;75.62
18988;BME280;5494;51.796;10.952;2022-07-10T02:02:39;99590.44;;;13.62;75.64
18988;BME280;5494;51.796;10.952;2022-07-10T02:05:08;99590.59;;;13.59;76.05
18988;BME280;5494;51.796;10.952;2022-07-10T02:07:36;99588.56;;;13.48;76.74
18988;BME280;5494;51.796;10.952;2022-07-10T02:10:07;99578.78;;;13.52;76.80
18988;BME280;5494;51.796;10.952;2022-07-10T02:12:36;99586.03;;;13.47;76.34
18988;BME280;5494;51.796;10.952;2022-07-10T02:15:07;99586.09;;;13.45;76.68
18988;BME280;5494;51.796;10.952;2022-07-10T02:17:35;99594.88;;;13.44;76.57
18988;BME280;5494;51.796;10.952;2022-07-10T02:20:05;99592.31;;;13.43;77.08
18988;BME280;5494;51.796;10.952;2022-07-10T02:22:34;99600.47;;;13.36;76.91
18988;BME280;5494;51.796;10.952;2022-07-10T02:25:02;99594.59;;;13.49;77.18
18988;BME280;5494;51.796;10.952;2022-07-10T02:27:32;99597.47;;;13.44;77.33
18988;BME280;5494;51.796;10.952;2022-07-10T02:30:01;99594.59;;;13.49;77.62
18988;BME280;5494;51.796;10.952;2022-07-10T02:32:29;99592.31;;;13.43;78.23
18988;BME280;5494;51.796;10.952;2022-07-10T02:34:58;99582.50;;;13.48;77.92
18988;BME280;5494;51.796;10.952;2022-07-10T02:37:27;99580.81;;;13.47;78.22
18988;BME280;5494;51.796;10.952;2022-07-10T02:39:55;99586.44;;;13.39;78.45
18988;BME280;5494;51.796;10.952;2022-07-10T02:42:24;99582.13;;;13.38;78.77
18988;BME280;5494;51.796;10.952;2022-07-10T02:44:53;99580.03;;;13.45;78.37
18988;BME280;5494;51.796;10.952;2022-07-10T02:47:21;99573.91;;;13.46;77.89
18988;BME280;5494;51.796;10.952;2022-07-10T02:49:50;99570.69;;;13.40;78.20
18988;BME280;5494;51.796;10.952;2022-07-10T02:52:18;99575.28;;;13.35;78.49
18988;BME280;5494;51.796;10.952;2022-07-10T02:54:47;99574.16;;;13.24;78.68
18988;BME280;5494;51.796;10.952;2022-07-10T02:57:15;99568.09;;;13.23;78.50
18988;BME280;5494;51.796;10.952;2022-07-10T02:59:43;99568.28;;;13.20;78.60
18988;BME280;5494;51.796;10.952;2022-07-10T03:02:13;99559.19;;;13.27;77.92
18988;BME280;5494;51.796;10.952;2022-07-10T03:04:42;99556.66;;;13.26;78.41
18988;BME280;5494;51.796;10.952;2022-07-10T03:07:10;99562.41;;;13.32;77.70
18988;BME280;5494;51.796;10.952;2022-07-10T03:09:39;99561.81;;;13.27;78.22
18988;BME280;5494;51.796;10.952;2022-07-10T03:12:07;99560.97;;;13.27;78.22
18988;BME280;5494;51.796;10.952;2022-07-10T03:14:36;99556.22;;;13.18;78.43
18988;BME280;5494;51.796;10.952;2022-07-10T03:17:05;99548.44;;;13.33;78.04
18988;BME280;5494;51.796;10.952;2022-07-10T03:19:34;99559.09;;;13.29;78.30
18988;BME280;5494;51.796;10.952;2022-07-10T03:22:03;99557.50;;;13.26;78.89
18988;BME280;5494;51.796;10.952;2022-07-10T03:24:32;99559.72;;;13.34;78.55
18988;BME280;5494;51.796;10.952;2022-07-10T03:27:01;99565.94;;;13.31;78.85
18988;BME280;5494;51.796;10.952;2022-07-10T03:29:30;99561.25;;;13.38;78.43
18988;BME280;5494;51.796;10.952;2022-07-10T03:31:59;99559.53;;;13.37;78.50
18988;BME280;5494;51.796;10.952;2022-07-10T03:34:27;99552.88;;;13.31;78.95
18988;BME280;5494;51.796;10.952;2022-07-10T03:36:57;99554.31;;;13.37;78.65
18988;BME280;5494;51.796;10.952;2022-07-10T03:39:27;99551.72;;;13.37;78.74
18988;BME280;5494;51.796;10.952;2022-07-10T03:41:55;99555.41;;;13.33;79.36
18988;BME280;5494;51.796;10.952;2022-07-10T03:44:24;99545.56;;;13.38;79.04
18988;BME280;5494;51.796;10.952;2022-07-10T03:46:52;99555.03;;;13.40;78.92
18988;BME280;5494;51.796;10.952;2022-07-10T03:49:20;99552.63;;;13.36;78.90
18988;BME280;5494;51.796;10.952;2022-07-10T03:51:49;99559.53;;;13.37;79.21
18988;BME280;5494;51.796;10.952;2022-07-10T03:54:19;99559.06;;;13.46;79.04
18988;BME280;5494;51.796;10.952;2022-07-10T03:56:47;99562.97;;;13.55;78.18
18988;BME280;5494;51.796;10.952;2022-07-10T03:59:34;99560.66;;;13.49;78.67
18988;BME280;5494;51.796;10.952;2022-07-10T04:02:03;99560.94;;;13.60;78.30
18988;BME280;5494;51.796;10.952;2022-07-10T04:04:33;99558.06;;;13.64;78.41
18988;BME280;5494;51.796;10.952;2022-07-10T04:07:02;99560.13;;;13.75;77.82
18988;BME280;5494;51.796;10.952;2022-07-10T04:09:32;99561.63;;;13.79;77.67
18988;BME280;5494;51.796;10.952;2022-07-10T04:12:01;99552.03;;;13.79;78.02
18988;BME280;5494;51.796;10.952;2022-07-10T04:14:29;99554.72;;;13.94;77.34
18988;BME280;5494;51.796;10.952;2022-07-10T04:16:57;99546.28;;;14.04;76.68
18988;BME280;5494;51.796;10.952;2022-07-10T04:19:26;99554.53;;;14.12;76.22
18988;BME280;5494;51.796;10.952;2022-07-10T04:21:55;99539.69;;;13.97;76.75
18988;BME280;5494;51.796;10.952;2022-07-10T04:24:23;99563.84;;;14.02;76.68
18988;BME280;5494;51.796;10.952;2022-07-10T04:26:53;99550.00;;;14.00;76.90
18988;BME280;5494;51.796;10.952;2022-07-10T04:29:21;99564.50;;;14.06;76.96
18988;BME280;5494;51.796;10.952;2022-07-10T04:31:49;99566.69;;;13.98;77.68
18988;BME280;5494;51.796;10.952;2022-07-10T04:34:18;99572.75;;;13.98;80.40
18988;BME280;5494;51.796;10.952;2022-07-10T04:36:47;99572.03;;;13.96;80.84
18988;BME280;5494;51.796;10.952;2022-07-10T04:39:15;99565.53;;;14.03;81.06
18988;BME280;5494;51.796;10.952;2022-07-10T04:41:44;99562.91;;;14.03;80.88
18988;BME280;5494;51.796;10.952;2022-07-10T04:44:13;99569.22;;;13.99;80.06
18988;BME280;5494;51.796;10.952;2022-07-10T04:46:42;99568.22;;;13.86;81.22
18988;BME280;5494;51.796;10.952;2022-07-10T04:49:10;99567.22;;;13.89;81.36
18988;BME280;5494;51.796;10.952;2022-07-10T04:51:39;99576.47;;;13.94;81.05
18988;BME280;5494;51.796;10.952;2022-07-10T04:54:13;99567.38;;;14.01;80.61
18988;BME280;5494;51.796;10.952;2022-07-10T04:56:41;99573.44;;;14.02;80.27
18988;BME280;5494;51.796;10.952;2022-07-10T04:59:10;99582.22;;;14.01;80.77
18988;BME280;5494;51.796;10.952;2022-07-10T05:01:40;99580.88;;;13.94;82.71
18988;BME280;5494;51.796;10.952;2022-07-10T05:04:09;99572.59;;;13.86;84.17
18988;BME280;5494;51.796;10.952;2022-07-10T05:06:37;99588.75;;;13.61;86.33
18988;BME280;5494;51.796;10.952;2022-07-10T05:09:06;99588.19;;;13.38;89.54
18988;BME280;5494;51.796;10.952;2022-07-10T05:11:34;99597.41;;;13.28;92.56
18988;BME280;5494;51.796;10.952;2022-07-10T05:14:02;99593.38;;;13.06;96.04
18988;BME280;5494;51.796;10.952;2022-07-10T05:16:31;99601.13;;;12.90;98.33
18988;BME280;5494;51.796;10.952;2022-07-10T05:19:00;99602.66;;;12.77;100.00
18988;BME280;5494;51.796;10.952;2022-07-10T05:21:29;99597.69;;;12.72;100.00
18988;BME280;5494;51.796;10.952;2022-07-10T05:23:58;99589.69;;;12.58;100.00
18988;BME280;5494;51.796;10.952;2022-07-10T05:26:27;99598.19;;;12.61;100.00
18988;BME280;5494;51.796;10.952;2022-07-10T05:28:55;99590.34;;;12.61;100.00
18988;BME280;5494;51.796;10.952;2022-07-10T05:31:23;99585.22;;;12.60;100.00
18988;BME280;5494;51.796;10.952;2022-07-10T05:33:52;99587.25;;;12.72;100.00
18988;BME280;5494;51.796;10.952;2022-07-10T05:36:22;99589.53;;;12.95;99.81
18988;BME280;5494;51.796;10.952;2022-07-10T05:38:51;99587.09;;;13.43;97.83
18988;BME280;5494;51.796;10.952;2022-07-10T05:41:19;99587.69;;;13.80;95.93
18988;BME280;5494;51.796;10.952;2022-07-10T05:43:48;99575.91;;;13.89;93.70
18988;BME280;5494;51.796;10.952;2022-07-10T05:46:17;99582.06;;;13.88;92.02
18988;BME280;5494;51.796;10.952;2022-07-10T05:48:45;99588.78;;;14.08;91.36
18988;BME280;5494;51.796;10.952;2022-07-10T05:51:13;99579.22;;;14.54;90.54
18988;BME280;5494;51.796;10.952;2022-07-10T05:53:59;99575.44;;;15.04;86.34
18988;BME280;5494;51.796;10.952;2022-07-10T05:56:28;99574.00;;;15.56;83.24
18988;BME280;5494;51.796;10.952;2022-07-10T05:58:57;99575.41;;;15.90;80.53
18988;BME280;5494;51.796;10.952;2022-07-10T06:01:25;99583.03;;;16.34;77.30
18988;BME280;5494;51.796;10.952;2022-07-10T06:03:54;99576.16;;;16.46;75.40
18988;BME280;5494;51.796;10.952;2022-07-10T06:06:23;99578.94;;;16.57;76.03
18988;BME280;5494;51.796;10.952;2022-07-10T06:08:55;99587.22;;;16.78;74.91
18988;BME280;5494;51.796;10.952;2022-07-10T06:11:25;99593.50;;;16.88;74.25
18988;BME280;5494;51.796;10.952;2022-07-10T06:13:53;99583.66;;;16.91;73.31
18988;BME280;5494;51.796;10.952;2022-07-10T06:16:21;99585.34;;;16.92;73.25
18988;BME280;5494;51.796;10.952;2022-07-10T06:18:50;99583.56;;;16.93;73.98
18988;BME280;5494;51.796;10.952;2022-07-10T06:21:18;99583.06;;;16.61;74.37
18988;BME280;5494;51.796;10.952;2022-07-10T06:23:49;99586.03;;;16.42;76.65
18988;BME280;5494;51.796;10.952;2022-07-10T06:26:17;99584.16;;;16.18;77.38
18988;BME280;5494;51.796;10.952;2022-07-10T06:28:48;99583.84;;;15.81;78.64
18988;BME280;5494;51.796;10.952;2022-07-10T06:31:17;99584.78;;;15.80;78.93
18988;BME280;5494;51.796;10.952;2022-07-10T06:33:45;99588.56;;;16.03;78.54
18988;BME280;5494;51.796;10.952;2022-07-10T06:36:14;99586.69;;;16.05;78.45
18988;BME280;5494;51.796;10.952;2022-07-10T06:38:45;99576.41;;;16.02;77.42
18988;BME280;5494;51.796;10.952;2022-07-10T06:41:13;99591.94;;;15.91;78.86
18988;BME280;5494;51.796;10.952;2022-07-10T06:43:42;99588.78;;;15.86;79.23
18988;BME280;5494;51.796;10.952;2022-07-10T06:46:12;99590.28;;;15.90;78.48
18988;BME280;5494;51.796;10.952;2022-07-10T06:48:40;99580.28;;;15.82;78.65
18988;BME280;5494;51.796;10.952;2022-07-10T06:51:08;99592.06;;;15.89;78.77
18988;BME280;5494;51.796;10.952;2022-07-10T06:53:45;99583.44;;;15.87;77.89
18988;BME280;5494;51.796;10.952;2022-07-10T06:56:14;99585.31;;;15.85;78.35
18988;BME280;5494;51.796;10.952;2022-07-10T06:58:43;99591.44;;;16.12;77.33
18988;BME280;5494;51.796;10.952;2022-07-10T07:01:13;99586.66;;;16.46;77.45
18988;BME280;5494;51.796;10.952;2022-07-10T07:03:41;99574.53;;;16.58;74.69
18988;BME280;5494;51.796;10.952;2022-07-10T07:06:10;99556.25;;;16.56;74.46
18988;BME280;5494;51.796;10.952;2022-07-10T07:08:38;99589.88;;;16.10;75.36
18988;BME280;5494;51.796;10.952;2022-07-10T07:11:07;99584.63;;;16.10;75.61
18988;BME280;5494;51.796;10.952;2022-07-10T07:13:37;99589.88;;;16.10;75.52
18988;BME280;5494;51.796;10.952;2022-07-10T07:16:06;99582.81;;;16.25;76.47
18988;BME280;5494;51.796;10.952;2022-07-10T07:18:38;99585.97;;;16.57;75.13
18988;BME280;5494;51.796;10.952;2022-07-10T07:21:17;99590.63;;;17.05;73.60
18988;BME280;5494;51.796;10.952;2022-07-10T07:23:59;99588.81;;;18.31;67.58
18988;BME280;5494;51.796;10.952;2022-07-10T07:26:27;99581.72;;;18.55;65.62
18988;BME280;5494;51.796;10.952;2022-07-10T07:28:56;99588.81;;;18.31;65.64
18988;BME280;5494;51.796;10.952;2022-07-10T07:31:25;99582.50;;;18.57;64.93
18988;BME280;5494;51.796;10.952;2022-07-10T07:33:54;99587.00;;;18.55;64.15
18988;BME280;5494;51.796;10.952;2022-07-10T07:36:23;99582.38;;;18.59;63.70
18988;BME280;5494;51.796;10.952;2022-07-10T07:38:52;99590.03;;;18.62;63.88
18988;BME280;5494;51.796;10.952;2022-07-10T07:41:20;99595.06;;;18.41;62.10
18988;BME280;5494;51.796;10.952;2022-07-10T07:43:50;99597.16;;;18.72;63.04
18988;BME280;5494;51.796;10.952;2022-07-10T07:46:19;99595.50;;;18.82;62.19
18988;BME280;5494;51.796;10.952;2022-07-10T07:48:48;99576.44;;;19.25;60.95
18988;BME280;5494;51.796;10.952;2022-07-10T07:51:18;99577.13;;;19.84;58.65
18988;BME280;5494;51.796;10.952;2022-07-10T07:53:47;99581.22;;;20.42;56.52
18988;BME280;5494;51.796;10.952;2022-07-10T07:56:16;99569.44;;;20.99;54.19
18988;BME280;5494;51.796;10.952;2022-07-10T07:58:44;99548.25;;;21.41;51.84
18988;BME280;5494;51.796;10.952;2022-07-10T08:01:13;99572.91;;;20.79;53.53
18988;BME280;5494;51.796;10.952;2022-07-10T08:03:41;99573.63;;;21.43;52.99
18988;BME280;5494;51.796;10.952;2022-07-10T08:06:31;99577.59;;;20.96;50.95
18988;BME280;5494;51.796;10.952;2022-07-10T08:08:59;99574.69;;;20.78;52.08
18988;BME280;5494;51.796;10.952;2022-07-10T08:11:28;99577.13;;;20.27;53.26
18988;BME280;5494;51.796;10.952;2022-07-10T08:13:57;99568.69;;;19.35;55.91
18988;BME280;5494;51.796;10.952;2022-07-10T08:16:25;99564.16;;;18.91;57.61
18988;BME280;5494;51.796;10.952;2022-07-10T08:18:54;99571.69;;;18.84;58.33
18988;BME280;5494;51.796;10.952;2022-07-10T08:21:22;99574.56;;;19.38;57.26
18988;BME280;5494;51.796;10.952;2022-07-10T08:23:52;99573.50;;;19.85;56.61
18988;BME280;5494;51.796;10.952;2022-07-10T08:26:21;99573.91;;;20.35;54.46
18988;BME280;5494;51.796;10.952;2022-07-10T08:28:49;99561.06;;;20.30;54.71
18988;BME280;5494;51.796;10.952;2022-07-10T08:31:18;99555.63;;;19.78;55.47
18988;BME280;5494;51.796;10.952;2022-07-10T08:33:47;99561.22;;;19.06;58.02
18988;BME280;5494;51.796;10.952;2022-07-10T08:36:15;99557.88;;;18.69;58.56
18988;BME280;5494;51.796;10.952;2022-07-10T08:39:05;99563.22;;;18.57;59.41
18988;BME280;5494;51.796;10.952;2022-07-10T08:41:36;99559.94;;;19.34;58.00
18988;BME280;5494;51.796;10.952;2022-07-10T08:44:05;99559.69;;;19.26;55.29
18988;BME280;5494;51.796;10.952;2022-07-10T08:46:34;99555.97;;;19.28;55.52
18988;BME280;5494;51.796;10.952;2022-07-10T08:49:08;99549.88;;;19.50;55.18
18988;BME280;5494;51.796;10.952;2022-07-10T08:51:46;99555.47;;;19.12;55.94
18988;BME280;5494;51.796;10.952;2022-07-10T08:54:18;99547.34;;;19.93;53.52
18988;BME280;5494;51.796;10.952;2022-07-10T08:56:50;99553.34;;;20.70;52.27
18988;BME280;5494;51.796;10.952;2022-07-10T08:59:22;99533.28;;;20.68;51.97
18988;BME280;5494;51.796;10.952;2022-07-10T09:01:58;99541.94;;;21.11;50.90
18988;BME280;5494;51.796;10.952;2022-07-10T09:04:27;99543.03;;;21.60;49.20
18988;BME280;5494;51.796;10.952;2022-07-10T09:06:56;99547.00;;;21.75;47.39
18988;BME280;5494;51.796;10.952;2022-07-10T09:09:26;99544.06;;;21.38;47.71
18988;BME280;5494;51.796;10.952;2022-07-10T09:11:59;99551.00;;;20.56;49.39
18988;BME280;5494;51.796;10.952;2022-07-10T09:14:28;99544.78;;;20.78;49.64
18988;BME280;5494;51.796;10.952;2022-07-10T09:17:02;99554.84;;;21.05;49.25
18988;BME280;5494;51.796;10.952;2022-07-10T09:19:31;99544.13;;;21.48;46.41
18988;BME280;5494;51.796;10.952;2022-07-10T09:22:05;99551.78;;;21.20;46.02
18988;BME280;5494;51.796;10.952;2022-07-10T09:24:41;99554.97;;;20.82;47.23
18988;BME280;5494;51.796;10.952;2022-07-10T09:27:13;99558.31;;;20.84;47.60
18988;BME280;5494;51.796;10.952;2022-07-10T09:29:48;99563.94;;;20.91;47.06
18988;BME280;5494;51.796;10.952;2022-07-10T09:32:19;99548.84;;;20.82;46.64
18988;BME280;5494;51.796;10.952;2022-07-10T09:34:49;99556.44;;;20.75;46.67
18988;BME280;5494;51.796;10.952;2022-07-10T09:37:40;99551.56;;;21.33;46.29
18988;BME280;5494;51.796;10.952;2022-07-10T09:40:10;99537.38;;;22.05;44.15
18988;BME280;5494;51.796;10.952;2022-07-10T09:42:41;99543.16;;;21.49;43.90
18988;BME280;5494;51.796;10.952;2022-07-10T09:45:15;99542.91;;;21.31;44.50
18988;BME280;5494;51.796;10.952;2022-07-10T09:47:47;99540.47;;;21.18;44.89
18988;BME280;5494;51.796;10.952;2022-07-10T09:50:25;99529.84;;;20.88;45.16
18988;BME280;5494;51.796;10.952;2022-07-10T09:52:57;99547.09;;;20.51;45.55
18988;BME280;5494;51.796;10.952;2022-07-10T09:55:31;99539.88;;;20.53;46.07
18988;BME280;5494;51.796;10.952;2022-07-10T09:58:03;99543.94;;;20.14;47.72
18988;BME280;5494;51.796;10.952;2022-07-10T10:00:34;99548.69;;;19.65;48.25
18988;BME280;5494;51.796;10.952;2022-07-10T10:03:05;99549.75;;;19.74;48.53
18988;BME280;5494;51.796;10.952;2022-07-10T10:05:37;99540.75;;;19.88;48.67
18988;BME280;5494;51.796;10.952;2022-07-10T10:08:12;99538.78;;;20.76;46.38
18988;BME280;5494;51.796;10.952;2022-07-10T10:10:47;99513.06;;;21.19;43.31
18988;BME280;5494;51.796;10.952;2022-07-10T10:13:21;99511.28;;;21.60;41.58
18988;BME280;5494;51.796;10.952;2022-07-10T10:15:51;99521.41;;;21.45;42.73
18988;BME280;5494;51.796;10.952;2022-07-10T10:18:23;99530.72;;;20.57;44.46
18988;BME280;5494;51.796;10.952;2022-07-10T10:20:53;99534.75;;;19.97;46.27
18988;BME280;5494;51.796;10.952;2022-07-10T10:23:23;99525.22;;;20.05;46.30
18988;BME280;5494;51.796;10.952;2022-07-10T10:25:55;99511.50;;;20.55;45.49
18988;BME280;5494;51.796;10.952;2022-07-10T10:28:25;99532.00;;;20.30;45.32
18988;BME280;5494;51.796;10.952;2022-07-10T10:30:58;99542.91;;;20.05;45.70
18988;BME280;5494;51.796;10.952;2022-07-10T10:33:44;99528.28;;;19.23;47.58
18988;BME280;5494;51.796;10.952;2022-07-10T10:36:43;99538.81;;;19.23;47.68
18988;BME280;5494;51.796;10.952;2022-07-10T10:39:14;99531.31;;;19.63;46.91
18988;BME280;5494;51.796;10.952;2022-07-10T10:41:50;99527.16;;;20.03;46.40
18988;BME280;5494;51.796;10.952;2022-07-10T10:44:24;99527.94;;;20.37;46.55
18988;BME280;5494;51.796;10.952;2022-07-10T10:46:56;99522.47;;;20.50;45.80
18988;BME280;5494;51.796;10.952;2022-07-10T10:49:54;99505.28;;;20.76;46.28
18988;BME280;5494;51.796;10.952;2022-07-10T10:52:23;99514.88;;;20.98;45.14
18988;BME280;5494;51.796;10.952;2022-07-10T10:55:05;99510.88;;;20.83;44.14
18988;BME280;5494;51.796;10.952;2022-07-10T10:57:42;99531.00;;;20.54;41.74
18988;BME280;5494;51.796;10.952;2022-07-10T11:00:33;99519.94;;;20.17;42.69
18988;BME280;5494;51.796;10.952;2022-07-10T11:05:51;99522.59;;;20.49;43.25
18988;BME280;5494;51.796;10.952;2022-07-10T11:08:38;99512.44;;;20.65;44.16
18988;BME280;5494;51.796;10.952;2022-07-10T11:11:39;99506.06;;;20.47;43.76
18988;BME280;5494;51.796;10.952;2022-07-10T11:14:13;99499.94;;;20.46;44.36
18988;BME280;5494;51.796;10.952;2022-07-10T11:16:48;99503.75;;;20.74;42.95
18988;BME280;5494;51.796;10.952;2022-07-10T11:19:22;99502.50;;;20.78;43.02
18988;BME280;5494;51.796;10.952;2022-07-10T11:25:01;99521.72;;;20.80;43.54
18988;BME280;5494;51.796;10.952;2022-07-10T11:27:54;99520.09;;;20.68;42.11
18988;BME280;5494;51.796;10.952;2022-07-10T11:30:47;99506.50;;;20.52;42.61
18988;BME280;5494;51.796;10.952;2022-07-10T11:33:18;99508.94;;;20.64;43.33
18988;BME280;5494;51.796;10.952;2022-07-10T11:35:50;99516.03;;;20.64;43.23
18988;BME280;5494;51.796;10.952;2022-07-10T11:38:20;99499.09;;;20.46;43.38
18988;BME280;5494;51.796;10.952;2022-07-10T11:40:49;99517.81;;;20.42;43.84
18988;BME280;5494;51.796;10.952;2022-07-10T11:43:20;99501.09;;;20.53;43.59
18988;BME280;5494;51.796;10.952;2022-07-10T11:45:52;99504.63;;;20.63;43.09
18988;BME280;5494;51.796;10.952;2022-07-10T11:48:27;99520.75;;;20.81;43.80
18988;BME280;5494;51.796;10.952;2022-07-10T11:50:56;99509.47;;;20.79;42.98
18988;BME280;5494;51.796;10.952;2022-07-10T11:53:26;99506.88;;;20.89;43.18
18988;BME280;5494;51.796;10.952;2022-07-10T11:55:55;99504.09;;;21.11;42.21
18988;BME280;5494;51.796;10.952;2022-07-10T11:58:24;99505.22;;;21.39;42.17
18988;BME280;5494;51.796;10.952;2022-07-10T12:01:03;99491.03;;;21.40;41.64
18988;BME280;5494;51.796;10.952;2022-07-10T12:03:33;99493.84;;;21.48;42.36
18988;BME280;5494;51.796;10.952;2022-07-10T12:06:04;99491.56;;;21.83;42.24
18988;BME280;5494;51.796;10.952;2022-07-10T12:08:44;99477.34;;;21.75;42.62
18988;BME280;5494;51.796;10.952;2022-07-10T12:11:14;99498.97;;;21.40;41.92
18988;BME280;5494;51.796;10.952;2022-07-10T12:13:43;99496.06;;;21.43;41.85
18988;BME280;5494;51.796;10.952;2022-07-10T12:16:14;99506.84;;;21.09;41.86
18988;BME280;5494;51.796;10.952;2022-07-10T12:18:43;99490.75;;;21.12;42.75
18988;BME280;5494;51.796;10.952;2022-07-10T12:21:14;99488.06;;;21.33;42.61
18988;BME280;5494;51.796;10.952;2022-07-10T12:23:45;99495.91;;;21.14;42.88
18988;BME280;5494;51.796;10.952;2022-07-10T12:26:16;99501.16;;;20.83;44.03
18988;BME280;5494;51.796;10.952;2022-07-10T12:28:55;99500.09;;;20.75;44.06
18988;BME280;5494;51.796;10.952;2022-07-10T12:31:28;99488.56;;;20.76;43.48
18988;BME280;5494;51.796;10.952;2022-07-10T12:33:59;99488.53;;;20.66;42.43
18988;BME280;5494;51.796;10.952;2022-07-10T12:36:46;99497.47;;;20.75;42.30
18988;BME280;5494;51.796;10.952;2022-07-10T12:39:17;99498.63;;;20.82;40.42
18988;BME280;5494;51.796;10.952;2022-07-10T12:42:01;99497.09;;;21.00;40.35
18988;BME280;5494;51.796;10.952;2022-07-10T12:44:37;99494.47;;;21.10;41.65
18988;BME280;5494;51.796;10.952;2022-07-10T12:47:12;99499.72;;;21.21;42.00
18988;BME280;5494;51.796;10.952;2022-07-10T12:49:50;99498.09;;;21.30;42.85
18988;BME280;5494;51.796;10.952;2022-07-10T12:52:25;99497.47;;;21.47;43.01
18988;BME280;5494;51.796;10.952;2022-07-10T12:55:13;99498.03;;;21.50;44.00
18988;BME280;5494;51.796;10.952;2022-07-10T12:57:51;99496.31;;;21.89;43.40
18988;BME280;5494;51.796;10.952;2022-07-10T13:00:22;99489.94;;;22.02;41.49
18988;BME280;5494;51.796;10.952;2022-07-10T13:03:00;99493.53;;;21.91;41.31
18988;BME280;5494;51.796;10.952;2022-07-10T13:05:31;99489.84;;;21.63;41.92
18988;BME280;5494;51.796;10.952;2022-07-10T13:08:11;99490.69;;;21.73;40.93
18988;BME280;5494;51.796;10.952;2022-07-10T13:10:44;99490.41;;;21.67;41.20
18988;BME280;5494;51.796;10.952;2022-07-10T13:13:13;99502.50;;;21.50;43.06
18988;BME280;5494;51.796;10.952;2022-07-10T13:15:43;99512.00;;;21.11;43.46
18988;BME280;5494;51.796;10.952;2022-07-10T13:18:20;99512.13;;;20.79;43.97
18988;BME280;5494;51.796;10.952;2022-07-10T13:20:53;99506.44;;;20.83;44.21
18988;BME280;5494;51.796;10.952;2022-07-10T13:23:28;99502.69;;;20.86;44.88
18988;BME280;5494;51.796;10.952;2022-07-10T13:25:57;99501.91;;;20.95;44.64